Canyon Crest, California
Current Conditions -  °F | °C
As of 5:53 AM on Thursday 18 Dec 2014 (Local Time) from KRAL Reporting Station
Clear Clear  
Wind Chill: 46°   Ceiling: Unl
Heat Index: 46°   Visibility: 10mi
Dew Point: 43°   Wind: 3mph
Humidity: 89%   Direction: 50°NE
Pressure: 30.14"   Gusts: NA
Location:  33.9841°N, 117.329°W
Report Text: KRAL 181353Z AUTO 05003KT 10SM CLR 08/06 A3014 RMK AO2 SLP198 T00780061
Loading
Personal Weather Stations






























Interactive Weather Map New forecast layout! Learn more

10-Day Weather Forecast

Advertisements
Track Severe Weather on mobile